createdAt,value
2023-04-26T00:04:28.460Z,2.33
2023-04-26T00:16:28.702Z,2.29
2023-04-26T00:28:29.130Z,1.15
2023-04-26T00:40:29.621Z,2.19
2023-04-26T00:52:30.041Z,2.12
2023-04-26T01:04:30.555Z,2.36
2023-04-26T01:28:31.418Z,1.97
2023-04-26T01:40:31.859Z,2.53
2023-04-26T01:52:32.318Z,1.91
2023-04-26T02:04:32.971Z,1.99
2023-04-26T02:16:33.242Z,2.06
2023-04-26T02:28:33.661Z,2.29
2023-04-26T02:40:34.137Z,0.93
2023-04-26T02:52:34.530Z,1.10
2023-04-26T03:04:35.027Z,1.12
2023-04-26T03:16:35.504Z,1.51
2023-04-26T03:28:35.936Z,0.28
2023-04-26T03:40:36.395Z,1.81
2023-04-26T03:52:36.842Z,1.07
2023-04-26T04:04:37.416Z,0.93
2023-04-26T04:16:37.733Z,1.33
2023-04-26T04:28:38.185Z,0.84
2023-04-26T04:40:38.641Z,0.41
2023-04-26T04:52:39.093Z,0.07
2023-04-26T05:04:39.647Z,0.99
2023-04-26T05:16:40.024Z,1.74
2023-04-26T05:28:40.456Z,2.53
2023-04-26T05:40:40.901Z,3.02
2023-04-26T05:52:41.338Z,1.22
2023-04-26T06:04:42.008Z,2.34
2023-04-26T06:16:43.708Z,1.87
2023-04-26T06:28:42.717Z,2.75
2023-04-26T06:40:43.164Z,2.45
2023-04-26T06:52:43.600Z,3.06
2023-04-26T07:04:44.278Z,2.95
2023-04-26T07:16:45.496Z,3.19
2023-04-26T07:28:44.970Z,3.89
2023-04-26T07:40:45.429Z,3.41
2023-04-26T07:52:45.882Z,3.25
2023-04-26T08:04:46.472Z,3.74
2023-04-26T08:16:46.783Z,3.62
2023-04-26T08:28:47.235Z,3.73
2023-04-26T08:40:47.716Z,4.61
2023-04-26T08:52:48.257Z,4.37
2023-04-26T09:04:48.728Z,4.06
2023-04-26T09:16:49.041Z,4.05
2023-04-26T09:28:49.574Z,2.95
2023-04-26T09:40:49.986Z,4.80
2023-04-26T09:52:50.390Z,6.02
2023-04-26T10:04:50.875Z,6.47
2023-04-26T10:16:51.430Z,5.76
2023-04-26T10:28:55.304Z,5.31
2023-04-26T10:40:53.374Z,4.73
2023-04-26T10:52:52.707Z,3.91
2023-04-26T11:04:53.256Z,4.69
2023-04-26T11:16:53.569Z,6.09
2023-04-26T11:28:54.266Z,5.59
2023-04-26T11:40:54.509Z,5.62
2023-04-26T11:52:54.956Z,5.07
2023-04-26T12:04:55.592Z,6.48
2023-04-26T12:16:55.911Z,5.74
2023-04-26T12:28:56.290Z,5.72
2023-04-26T12:40:56.793Z,4.18
2023-04-26T12:52:57.213Z,4.32
2023-04-26T13:04:57.809Z,3.69
2023-04-26T13:16:58.133Z,3.53
2023-04-26T13:28:58.652Z,2.31
2023-04-26T13:40:59.067Z,3.46
2023-04-26T13:52:59.500Z,4.75
2023-04-26T14:05:00.011Z,4.68
2023-04-26T14:17:00.407Z,4.74
2023-04-26T14:29:00.840Z,3.62
2023-04-26T14:41:01.329Z,3.55
2023-04-26T14:53:01.768Z,2.31
2023-04-26T15:05:02.299Z,1.87
2023-04-26T15:17:02.742Z,1.54
2023-04-26T15:29:03.143Z,2.30
2023-04-26T15:41:03.575Z,3.59
2023-04-26T15:53:04.057Z,1.68
2023-04-26T16:05:04.655Z,2.82
2023-04-26T16:17:05.006Z,4.01
2023-04-26T16:29:05.402Z,1.75
2023-04-26T16:41:05.860Z,1.39
2023-04-26T16:53:06.300Z,1.22
2023-04-26T17:05:06.801Z,1.93
2023-04-26T17:17:07.348Z,0.20
2023-04-26T17:29:07.789Z,0.35
2023-04-26T17:41:08.120Z,0.65
2023-04-26T17:53:08.627Z,0.12
2023-04-26T18:05:09.039Z,0.23
2023-04-26T18:17:09.552Z,0.14
2023-04-26T18:29:09.941Z,0.36
2023-04-26T18:41:10.374Z,0.33
2023-04-26T18:53:10.854Z,0.07
2023-04-26T19:05:11.624Z,0.00
2023-04-26T19:17:11.766Z,0.00
2023-04-26T19:29:12.247Z,0.03
2023-04-26T19:41:12.642Z,0.06
2023-04-26T19:53:13.264Z,0.00
2023-04-26T20:05:13.568Z,0.00
2023-04-26T20:17:14.001Z,0.00
2023-04-26T20:29:14.462Z,0.04
2023-04-26T20:41:15.233Z,0.11
2023-04-26T20:53:15.368Z,0.00
2023-04-26T21:05:15.811Z,0.02
2023-04-26T21:17:16.259Z,0.01
2023-04-26T21:29:16.763Z,0.01
2023-04-26T21:41:17.214Z,0.00
2023-04-26T21:53:17.619Z,0.59
2023-04-26T22:05:18.068Z,0.18
2023-04-26T22:17:18.591Z,0.03
2023-04-26T22:29:18.986Z,0.96
2023-04-26T22:41:19.414Z,0.18
2023-04-26T22:53:19.920Z,0.03
2023-04-26T23:05:20.344Z,0.03
2023-04-26T23:17:20.875Z,0.01
2023-04-26T23:29:21.230Z,0.01
2023-04-26T23:41:21.689Z,0.00
2023-04-26T23:53:22.167Z,0.00
